sensor_id;sensor_type;location;lat;lon;timestamp;pressure;altitude;pressure_sealevel;temperature;humidity
10881;BME280;5493;48.884;8.338;2023-02-01T00:02:25;101031.25;;;6.44;100.00
10881;BME280;5493;48.884;8.338;2023-02-01T00:04:51;101025.25;;;6.42;100.00
10881;BME280;5493;48.884;8.338;2023-02-01T00:07:18;101020.00;;;6.49;100.00
10881;BME280;5493;48.884;8.338;2023-02-01T00:09:46;101016.94;;;6.60;100.00
10881;BME280;5493;48.884;8.338;2023-02-01T00:12:12;101008.69;;;6.39;100.00
10881;BME280;5493;48.884;8.338;2023-02-01T00:14:39;101011.25;;;6.55;100.00
10881;BME280;5493;48.884;8.338;2023-02-01T00:17:06;101004.69;;;6.35;100.00
10881;BME280;5493;48.884;8.338;2023-02-01T00:19:32;101004.59;;;6.51;100.00
10881;BME280;5493;48.884;8.338;2023-02-01T00:21:59;100989.63;;;6.65;100.00
10881;BME280;5493;48.884;8.338;2023-02-01T00:24:26;101001.78;;;6.44;100.00
10881;BME280;5493;48.884;8.338;2023-02-01T00:26:54;101000.44;;;6.79;100.00
10881;BME280;5493;48.884;8.338;2023-02-01T00:29:20;100990.22;;;6.75;100.00
10881;BME280;5493;48.884;8.338;2023-02-01T00:31:49;100986.16;;;6.56;100.00
10881;BME280;5493;48.884;8.338;2023-02-01T00:34:17;100979.28;;;6.62;100.00
10881;BME280;5493;48.884;8.338;2023-02-01T00:36:44;100986.41;;;6.69;100.00
10881;BME280;5493;48.884;8.338;2023-02-01T00:39:11;100987.63;;;6.89;100.00
10881;BME280;5493;48.884;8.338;2023-02-01T00:41:38;100991.81;;;6.61;100.00
10881;BME280;5493;48.884;8.338;2023-02-01T00:44:06;100985.78;;;6.59;100.00
10881;BME280;5493;48.884;8.338;2023-02-01T00:46:33;100994.41;;;6.47;100.00
10881;BME280;5493;48.884;8.338;2023-02-01T00:48:59;101001.91;;;6.82;100.00
10881;BME280;5493;48.884;8.338;2023-02-01T00:51:27;101000.03;;;6.60;100.00
10881;BME280;5493;48.884;8.338;2023-02-01T00:53:54;100996.53;;;6.51;100.00
10881;BME280;5493;48.884;8.338;2023-02-01T00:56:21;100992.22;;;6.73;100.00
10881;BME280;5493;48.884;8.338;2023-02-01T00:58:48;100979.06;;;6.63;100.00
10881;BME280;5493;48.884;8.338;2023-02-01T01:01:17;100977.03;;;6.42;100.00
10881;BME280;5493;48.884;8.338;2023-02-01T01:03:45;100979.38;;;6.68;100.00
10881;BME280;5493;48.884;8.338;2023-02-01T01:06:14;100975.69;;;6.69;100.00
10881;BME280;5493;48.884;8.338;2023-02-01T01:08:42;100962.47;;;6.68;100.00
10881;BME280;5493;48.884;8.338;2023-02-01T01:11:11;100974.44;;;6.57;100.00
10881;BME280;5493;48.884;8.338;2023-02-01T01:13:38;100969.34;;;6.62;100.00
10881;BME280;5493;48.884;8.338;2023-02-01T01:16:06;100973.97;;;6.76;100.00
10881;BME280;5493;48.884;8.338;2023-02-01T01:18:35;100975.03;;;6.67;100.00
10881;BME280;5493;48.884;8.338;2023-02-01T01:21:03;100976.09;;;6.81;100.00
10881;BME280;5493;48.884;8.338;2023-02-01T01:23:30;100981.78;;;6.55;100.00
10881;BME280;5493;48.884;8.338;2023-02-01T01:25:56;100977.13;;;6.57;100.00
10881;BME280;5493;48.884;8.338;2023-02-01T01:28:23;100988.50;;;6.51;100.00
10881;BME280;5493;48.884;8.338;2023-02-01T01:30:49;100975.28;;;6.80;100.00
10881;BME280;5493;48.884;8.338;2023-02-01T01:33:16;100974.78;;;6.54;100.00
10881;BME280;5493;48.884;8.338;2023-02-01T01:35:44;100978.84;;;6.73;100.00
10881;BME280;5493;48.884;8.338;2023-02-01T01:38:10;100979.59;;;6.59;100.00
10881;BME280;5493;48.884;8.338;2023-02-01T01:40:37;100971.66;;;6.42;100.00
10881;BME280;5493;48.884;8.338;2023-02-01T01:43:12;100964.97;;;6.47;100.00
10881;BME280;5493;48.884;8.338;2023-02-01T01:45:39;100974.03;;;6.68;100.00
10881;BME280;5493;48.884;8.338;2023-02-01T01:48:10;100965.44;;;6.73;100.00
10881;BME280;5493;48.884;8.338;2023-02-01T01:50:43;100949.84;;;6.54;100.00
10881;BME280;5493;48.884;8.338;2023-02-01T01:53:16;100953.66;;;6.59;100.00
10881;BME280;5493;48.884;8.338;2023-02-01T01:55:47;100957.69;;;6.55;100.00
10881;BME280;5493;48.884;8.338;2023-02-01T01:58:17;100952.41;;;6.70;100.00
10881;BME280;5493;48.884;8.338;2023-02-01T02:00:44;100958.00;;;6.60;100.00
10881;BME280;5493;48.884;8.338;2023-02-01T02:03:14;100948.72;;;6.71;100.00
10881;BME280;5493;48.884;8.338;2023-02-01T02:05:41;100945.88;;;6.72;100.00
10881;BME280;5493;48.884;8.338;2023-02-01T02:08:08;100957.16;;;6.60;100.00
10881;BME280;5493;48.884;8.338;2023-02-01T02:10:36;100956.16;;;6.61;100.00
10881;BME280;5493;48.884;8.338;2023-02-01T02:13:20;100940.50;;;6.50;100.00
10881;BME280;5493;48.884;8.338;2023-02-01T02:15:54;100939.97;;;6.54;100.00
10881;BME280;5493;48.884;8.338;2023-02-01T02:18:27;100945.97;;;6.79;100.00
10881;BME280;5493;48.884;8.338;2023-02-01T02:21:11;100935.88;;;6.35;100.00
10881;BME280;5493;48.884;8.338;2023-02-01T02:26:51;100923.94;;;6.46;100.00
10881;BME280;5493;48.884;8.338;2023-02-01T02:30:02;100907.88;;;6.46;100.00
10881;BME280;5493;48.884;8.338;2023-02-01T02:35:38;100941.75;;;6.62;100.00
10881;BME280;5493;48.884;8.338;2023-02-01T02:38:16;100938.94;;;6.55;100.00
10881;BME280;5493;48.884;8.338;2023-02-01T02:40:48;100939.13;;;6.54;100.00
10881;BME280;5493;48.884;8.338;2023-02-01T02:43:21;100948.84;;;6.55;100.00
10881;BME280;5493;48.884;8.338;2023-02-01T02:46:10;100944.22;;;6.40;100.00
10881;BME280;5493;48.884;8.338;2023-02-01T02:49:02;100952.59;;;6.68;100.00
10881;BME280;5493;48.884;8.338;2023-02-01T02:51:35;100936.72;;;6.36;100.00
10881;BME280;5493;48.884;8.338;2023-02-01T02:54:23;100932.06;;;6.30;100.00
10881;BME280;5493;48.884;8.338;2023-02-01T02:57:11;100933.16;;;6.43;100.00
10881;BME280;5493;48.884;8.338;2023-02-01T02:59:59;100929.81;;;6.41;100.00
10881;BME280;5493;48.884;8.338;2023-02-01T03:02:45;100938.13;;;6.55;100.00
10881;BME280;5493;48.884;8.338;2023-02-01T03:05:32;100939.47;;;6.73;100.00
10881;BME280;5493;48.884;8.338;2023-02-01T03:08:10;100930.69;;;6.65;100.00
10881;BME280;5493;48.884;8.338;2023-02-01T03:10:47;100937.81;;;6.50;100.00
10881;BME280;5493;48.884;8.338;2023-02-01T03:13:19;100934.38;;;6.64;100.00
10881;BME280;5493;48.884;8.338;2023-02-01T03:15:51;100933.41;;;6.57;100.00
10881;BME280;5493;48.884;8.338;2023-02-01T03:18:26;100923.81;;;6.39;100.00
10881;BME280;5493;48.884;8.338;2023-02-01T03:20:55;100925.13;;;6.43;100.00
10881;BME280;5493;48.884;8.338;2023-02-01T03:23:29;100920.53;;;6.52;100.00
10881;BME280;5493;48.884;8.338;2023-02-01T03:25:58;100919.56;;;6.76;100.00
10881;BME280;5493;48.884;8.338;2023-02-01T03:28:28;100906.25;;;6.60;100.00
10881;BME280;5493;48.884;8.338;2023-02-01T03:30:56;100892.28;;;6.72;100.00
10881;BME280;5493;48.884;8.338;2023-02-01T03:33:25;100882.50;;;6.57;100.00
10881;BME280;5493;48.884;8.338;2023-02-01T03:35:59;100895.75;;;6.73;100.00
10881;BME280;5493;48.884;8.338;2023-02-01T03:38:31;100899.53;;;6.64;100.00
10881;BME280;5493;48.884;8.338;2023-02-01T03:41:05;100882.34;;;6.58;100.00
10881;BME280;5493;48.884;8.338;2023-02-01T03:43:42;100898.81;;;6.70;100.00
10881;BME280;5493;48.884;8.338;2023-02-01T03:46:18;100891.66;;;6.62;100.00
10881;BME280;5493;48.884;8.338;2023-02-01T03:48:48;100880.63;;;6.65;100.00
10881;BME280;5493;48.884;8.338;2023-02-01T03:51:19;100872.63;;;6.57;100.00
10881;BME280;5493;48.884;8.338;2023-02-01T03:53:48;100866.06;;;6.82;100.00
10881;BME280;5493;48.884;8.338;2023-02-01T03:56:18;100885.50;;;6.99;100.00
10881;BME280;5493;48.884;8.338;2023-02-01T03:58:45;100895.09;;;6.93;100.00
10881;BME280;5493;48.884;8.338;2023-02-01T04:01:24;100887.59;;;6.89;100.00
10881;BME280;5493;48.884;8.338;2023-02-01T04:03:50;100903.53;;;6.90;100.00
10881;BME280;5493;48.884;8.338;2023-02-01T04:06:17;100916.19;;;6.97;100.00
10881;BME280;5493;48.884;8.338;2023-02-01T04:08:44;100923.03;;;6.99;100.00
10881;BME280;5493;48.884;8.338;2023-02-01T04:11:11;100923.28;;;6.89;100.00
10881;BME280;5493;48.884;8.338;2023-02-01T04:13:38;100922.75;;;6.94;100.00
10881;BME280;5493;48.884;8.338;2023-02-01T04:16:05;100908.41;;;6.87;100.00
10881;BME280;5493;48.884;8.338;2023-02-01T04:18:32;100903.56;;;6.82;100.00
10881;BME280;5493;48.884;8.338;2023-02-01T04:20:58;100907.69;;;6.93;100.00
10881;BME280;5493;48.884;8.338;2023-02-01T04:23:26;100899.38;;;7.03;100.00
10881;BME280;5493;48.884;8.338;2023-02-01T04:25:52;100911.09;;;6.87;100.00
10881;BME280;5493;48.884;8.338;2023-02-01T04:28:21;100895.22;;;7.00;100.00
10881;BME280;5493;48.884;8.338;2023-02-01T04:30:47;100913.69;;;6.95;100.00
10881;BME280;5493;48.884;8.338;2023-02-01T04:33:14;100910.06;;;6.88;100.00
10881;BME280;5493;48.884;8.338;2023-02-01T04:35:41;100923.34;;;7.04;100.00
10881;BME280;5493;48.884;8.338;2023-02-01T04:38:07;100919.47;;;7.21;100.00
10881;BME280;5493;48.884;8.338;2023-02-01T04:40:34;100913.13;;;7.00;100.00
10881;BME280;5493;48.884;8.338;2023-02-01T04:43:03;100909.19;;;7.10;100.00
10881;BME280;5493;48.884;8.338;2023-02-01T04:45:31;100894.22;;;7.01;100.00
10881;BME280;5493;48.884;8.338;2023-02-01T04:47:59;100905.84;;;6.93;100.00
10881;BME280;5493;48.884;8.338;2023-02-01T04:50:25;100902.22;;;6.86;100.00
10881;BME280;5493;48.884;8.338;2023-02-01T04:52:52;100910.13;;;7.17;100.00
10881;BME280;5493;48.884;8.338;2023-02-01T04:55:18;100919.66;;;7.05;100.00
10881;BME280;5493;48.884;8.338;2023-02-01T04:57:45;100935.00;;;7.11;100.00
10881;BME280;5493;48.884;8.338;2023-02-01T05:00:12;100927.13;;;6.72;100.00
10881;BME280;5493;48.884;8.338;2023-02-01T05:02:40;100917.75;;;6.68;100.00
10881;BME280;5493;48.884;8.338;2023-02-01T05:05:08;100937.28;;;6.77;100.00
10881;BME280;5493;48.884;8.338;2023-02-01T05:07:34;100949.25;;;6.66;100.00
10881;BME280;5493;48.884;8.338;2023-02-01T05:10:01;100956.81;;;6.85;100.00
10881;BME280;5493;48.884;8.338;2023-02-01T05:12:27;100956.03;;;6.54;100.00
10881;BME280;5493;48.884;8.338;2023-02-01T05:15:11;100957.88;;;6.54;100.00
10881;BME280;5493;48.884;8.338;2023-02-01T05:17:38;100962.00;;;6.33;100.00
10881;BME280;5493;48.884;8.338;2023-02-01T05:20:09;100953.28;;;6.39;100.00
10881;BME280;5493;48.884;8.338;2023-02-01T05:22:36;100956.44;;;6.43;100.00
10881;BME280;5493;48.884;8.338;2023-02-01T05:25:03;100957.91;;;6.46;100.00
10881;BME280;5493;48.884;8.338;2023-02-01T05:27:29;100962.31;;;6.38;100.00
10881;BME280;5493;48.884;8.338;2023-02-01T05:29:56;100964.34;;;6.36;100.00
10881;BME280;5493;48.884;8.338;2023-02-01T05:32:23;100962.75;;;6.19;100.00
10881;BME280;5493;48.884;8.338;2023-02-01T05:34:49;100952.56;;;6.15;100.00
10881;BME280;5493;48.884;8.338;2023-02-01T05:37:17;100960.19;;;6.26;100.00
10881;BME280;5493;48.884;8.338;2023-02-01T05:39:44;100975.53;;;6.40;100.00
10881;BME280;5493;48.884;8.338;2023-02-01T05:42:10;100949.00;;;6.22;100.00
10881;BME280;5493;48.884;8.338;2023-02-01T05:44:37;100945.50;;;6.22;100.00
10881;BME280;5493;48.884;8.338;2023-02-01T05:47:03;100949.97;;;6.29;100.00
10881;BME280;5493;48.884;8.338;2023-02-01T05:49:30;100947.47;;;6.28;100.00
10881;BME280;5493;48.884;8.338;2023-02-01T05:51:57;100947.38;;;6.44;100.00
10881;BME280;5493;48.884;8.338;2023-02-01T05:54:24;100953.66;;;6.59;100.00
10881;BME280;5493;48.884;8.338;2023-02-01T05:56:51;100945.00;;;6.49;100.00
10881;BME280;5493;48.884;8.338;2023-02-01T05:59:18;100938.72;;;6.65;100.00
10881;BME280;5493;48.884;8.338;2023-02-01T06:01:44;100923.22;;;6.52;100.00
10881;BME280;5493;48.884;8.338;2023-02-01T06:04:11;100933.09;;;6.52;100.00
10881;BME280;5493;48.884;8.338;2023-02-01T06:06:37;100941.13;;;6.52;100.00
10881;BME280;5493;48.884;8.338;2023-02-01T06:09:04;100932.88;;;6.61;100.00
10881;BME280;5493;48.884;8.338;2023-02-01T06:11:32;100924.19;;;6.36;100.00
10881;BME280;5493;48.884;8.338;2023-02-01T06:13:58;100923.66;;;6.64;100.00
10881;BME280;5493;48.884;8.338;2023-02-01T06:16:25;100912.13;;;6.55;100.00
10881;BME280;5493;48.884;8.338;2023-02-01T06:18:52;100919.41;;;6.69;100.00
10881;BME280;5493;48.884;8.338;2023-02-01T06:21:18;100908.28;;;6.80;100.00
10881;BME280;5493;48.884;8.338;2023-02-01T06:23:49;100915.03;;;6.76;100.00
10881;BME280;5493;48.884;8.338;2023-02-01T06:26:15;100917.94;;;6.67;100.00
10881;BME280;5493;48.884;8.338;2023-02-01T06:28:44;100921.97;;;6.63;100.00
10881;BME280;5493;48.884;8.338;2023-02-01T06:31:11;100928.06;;;6.79;100.00
10881;BME280;5493;48.884;8.338;2023-02-01T06:33:38;100927.91;;;6.73;100.00
10881;BME280;5493;48.884;8.338;2023-02-01T06:36:07;100927.03;;;6.80;100.00
10881;BME280;5493;48.884;8.338;2023-02-01T06:38:34;100927.41;;;6.77;100.00
10881;BME280;5493;48.884;8.338;2023-02-01T06:41:01;100934.28;;;6.94;100.00
10881;BME280;5493;48.884;8.338;2023-02-01T06:43:28;100939.09;;;6.62;100.00
10881;BME280;5493;48.884;8.338;2023-02-01T06:46:01;100941.84;;;6.91;100.00
10881;BME280;5493;48.884;8.338;2023-02-01T06:48:28;100927.97;;;6.87;100.00
10881;BME280;5493;48.884;8.338;2023-02-01T06:50:54;100930.69;;;6.65;100.00
10881;BME280;5493;48.884;8.338;2023-02-01T06:53:21;100926.84;;;6.59;100.00
10881;BME280;5493;48.884;8.338;2023-02-01T06:55:54;100937.59;;;6.82;100.00
10881;BME280;5493;48.884;8.338;2023-02-01T06:58:21;100947.00;;;6.78;100.00
10881;BME280;5493;48.884;8.338;2023-02-01T07:00:48;100938.47;;;6.74;100.00
10881;BME280;5493;48.884;8.338;2023-02-01T07:03:16;100948.53;;;6.95;100.00
10881;BME280;5493;48.884;8.338;2023-02-01T07:05:42;100939.63;;;6.80;100.00
10881;BME280;5493;48.884;8.338;2023-02-01T07:08:09;100971.22;;;7.07;100.00
10881;BME280;5493;48.884;8.338;2023-02-01T07:10:35;100975.22;;;7.11;100.00
10881;BME280;5493;48.884;8.338;2023-02-01T07:13:01;100967.06;;;7.05;100.00
10881;BME280;5493;48.884;8.338;2023-02-01T07:15:28;100965.81;;;7.15;100.00
10881;BME280;5493;48.884;8.338;2023-02-01T07:17:55;100958.13;;;7.12;100.00
10881;BME280;5493;48.884;8.338;2023-02-01T07:20:23;100967.50;;;6.93;100.00
10881;BME280;5493;48.884;8.338;2023-02-01T07:22:54;100975.47;;;7.02;100.00
10881;BME280;5493;48.884;8.338;2023-02-01T07:25:21;100970.81;;;6.96;100.00
10881;BME280;5493;48.884;8.338;2023-02-01T07:27:47;100974.81;;;7.00;100.00
10881;BME280;5493;48.884;8.338;2023-02-01T07:30:14;100979.41;;;7.28;100.00
10881;BME280;5493;48.884;8.338;2023-02-01T07:32:41;100973.94;;;7.22;100.00
10881;BME280;5493;48.884;8.338;2023-02-01T07:35:07;100970.75;;;7.04;100.00
10881;BME280;5493;48.884;8.338;2023-02-01T07:37:35;100971.88;;;7.09;100.00
10881;BME280;5493;48.884;8.338;2023-02-01T07:40:02;100971.75;;;7.25;100.00
10881;BME280;5493;48.884;8.338;2023-02-01T07:42:29;100975.88;;;6.90;100.00
10881;BME280;5493;48.884;8.338;2023-02-01T07:44:55;100964.91;;;7.00;100.00
10881;BME280;5493;48.884;8.338;2023-02-01T07:47:22;100975.16;;;7.19;100.00
10881;BME280;5493;48.884;8.338;2023-02-01T07:49:49;100962.34;;;7.07;100.00
10881;BME280;5493;48.884;8.338;2023-02-01T07:52:15;100977.53;;;7.14;100.00
10881;BME280;5493;48.884;8.338;2023-02-01T07:54:43;100981.84;;;7.01;100.00
10881;BME280;5493;48.884;8.338;2023-02-01T07:57:09;100975.28;;;7.03;100.00
10881;BME280;5493;48.884;8.338;2023-02-01T07:59:38;100971.28;;;7.22;100.00
10881;BME280;5493;48.884;8.338;2023-02-01T08:02:25;100967.66;;;7.15;100.00
10881;BME280;5493;48.884;8.338;2023-02-01T08:04:51;100956.09;;;6.91;100.00
10881;BME280;5493;48.884;8.338;2023-02-01T08:07:18;100956.91;;;7.15;100.00
10881;BME280;5493;48.884;8.338;2023-02-01T08:09:46;100966.53;;;7.24;100.00
10881;BME280;5493;48.884;8.338;2023-02-01T08:12:12;100966.50;;;7.09;100.00
10881;BME280;5493;48.884;8.338;2023-02-01T08:14:39;100962.97;;;6.94;100.00
10881;BME280;5493;48.884;8.338;2023-02-01T08:17:06;100977.69;;;7.13;100.00
10881;BME280;5493;48.884;8.338;2023-02-01T08:19:32;100979.91;;;7.09;100.00
10881;BME280;5493;48.884;8.338;2023-02-01T08:21:59;100993.09;;;6.96;100.00
10881;BME280;5493;48.884;8.338;2023-02-01T08:24:27;100975.81;;;6.99;100.00
10881;BME280;5493;48.884;8.338;2023-02-01T08:26:55;100981.06;;;7.15;100.00
10881;BME280;5493;48.884;8.338;2023-02-01T08:29:21;100963.50;;;6.89;100.00
10881;BME280;5493;48.884;8.338;2023-02-01T08:31:48;100994.09;;;6.95;100.00
10881;BME280;5493;48.884;8.338;2023-02-01T08:34:15;100996.00;;;7.32;100.00
10881;BME280;5493;48.884;8.338;2023-02-01T08:36:42;100995.41;;;7.22;100.00
10881;BME280;5493;48.884;8.338;2023-02-01T08:39:09;101001.50;;;7.16;100.00
10881;BME280;5493;48.884;8.338;2023-02-01T08:41:36;101008.09;;;7.28;100.00
10881;BME280;5493;48.884;8.338;2023-02-01T08:44:04;101006.19;;;7.36;100.00
10881;BME280;5493;48.884;8.338;2023-02-01T08:46:30;101012.56;;;7.35;100.00
10881;BME280;5493;48.884;8.338;2023-02-01T08:48:57;101017.44;;;7.32;100.00
10881;BME280;5493;48.884;8.338;2023-02-01T08:51:24;100998.25;;;7.20;100.00
10881;BME280;5493;48.884;8.338;2023-02-01T08:53:50;101027.91;;;7.27;100.00
10881;BME280;5493;48.884;8.338;2023-02-01T08:56:18;101028.72;;;7.27;100.00
10881;BME280;5493;48.884;8.338;2023-02-01T08:58:45;101022.66;;;7.33;100.00
10881;BME280;5493;48.884;8.338;2023-02-01T09:01:14;101026.38;;;7.24;100.00
10881;BME280;5493;48.884;8.338;2023-02-01T09:03:42;101040.63;;;7.02;100.00
10881;BME280;5493;48.884;8.338;2023-02-01T09:06:10;101040.44;;;7.49;100.00
10881;BME280;5493;48.884;8.338;2023-02-01T09:08:38;101038.78;;;7.03;100.00
10881;BME280;5493;48.884;8.338;2023-02-01T09:11:07;101031.63;;;7.40;100.00
10881;BME280;5493;48.884;8.338;2023-02-01T09:13:34;101029.31;;;7.37;100.00
10881;BME280;5493;48.884;8.338;2023-02-01T09:16:00;101039.75;;;7.32;100.00
10881;BME280;5493;48.884;8.338;2023-02-01T09:18:29;101032.50;;;7.56;100.00
10881;BME280;5493;48.884;8.338;2023-02-01T09:20:55;101038.94;;;7.47;100.00
10881;BME280;5493;48.884;8.338;2023-02-01T09:23:22;101032.63;;;7.39;100.00
10881;BME280;5493;48.884;8.338;2023-02-01T09:25:49;101035.16;;;7.41;100.00
10881;BME280;5493;48.884;8.338;2023-02-01T09:28:16;101035.38;;;7.54;100.00
10881;BME280;5493;48.884;8.338;2023-02-01T09:30:43;101046.88;;;7.63;100.00
10881;BME280;5493;48.884;8.338;2023-02-01T09:33:09;101030.06;;;7.46;100.00
10881;BME280;5493;48.884;8.338;2023-02-01T09:35:37;101021.34;;;7.29;100.00
10881;BME280;5493;48.884;8.338;2023-02-01T09:38:04;101011.13;;;7.48;100.00
10881;BME280;5493;48.884;8.338;2023-02-01T09:40:30;101019.63;;;7.51;100.00
10881;BME280;5493;48.884;8.338;2023-02-01T09:43:10;101017.69;;;7.60;100.00
10881;BME280;5493;48.884;8.338;2023-02-01T09:45:48;101023.63;;;7.55;100.00
10881;BME280;5493;48.884;8.338;2023-02-01T09:48:20;101023.25;;;7.58;100.00
10881;BME280;5493;48.884;8.338;2023-02-01T09:50:54;101016.84;;;7.45;100.00
10881;BME280;5493;48.884;8.338;2023-02-01T09:53:24;101037.22;;;7.31;100.00
10881;BME280;5493;48.884;8.338;2023-02-01T09:55:55;101049.88;;;7.60;100.00
10881;BME280;5493;48.884;8.338;2023-02-01T09:58:27;101061.28;;;7.62;100.00
10881;BME280;5493;48.884;8.338;2023-02-01T10:01:00;101063.44;;;7.66;100.00
10881;BME280;5493;48.884;8.338;2023-02-01T10:03:29;101061.97;;;7.78;100.00
10881;BME280;5493;48.884;8.338;2023-02-01T10:06:35;101081.44;;;7.80;100.00
10881;BME280;5493;48.884;8.338;2023-02-01T10:09:33;101078.34;;;7.69;100.00
10881;BME280;5493;48.884;8.338;2023-02-01T10:12:41;101077.66;;;7.29;100.00
10881;BME280;5493;48.884;8.338;2023-02-01T10:15:20;101071.19;;;7.38;100.00
10881;BME280;5493;48.884;8.338;2023-02-01T10:18:00;101080.63;;;7.57;100.00
10881;BME280;5493;48.884;8.338;2023-02-01T10:20:44;101075.66;;;7.69;100.00
10881;BME280;5493;48.884;8.338;2023-02-01T10:26:18;101071.56;;;7.35;100.00
10881;BME280;5493;48.884;8.338;2023-02-01T10:28:49;101086.81;;;7.35;100.00
10881;BME280;5493;48.884;8.338;2023-02-01T10:31:17;101086.50;;;7.53;100.00
10881;BME280;5493;48.884;8.338;2023-02-01T10:33:46;101069.84;;;7.42;100.00
10881;BME280;5493;48.884;8.338;2023-02-01T10:36:16;101073.25;;;7.59;100.00
10881;BME280;5493;48.884;8.338;2023-02-01T10:38:47;101070.66;;;7.66;100.00
10881;BME280;5493;48.884;8.338;2023-02-01T10:41:17;101054.50;;;7.51;100.00
10881;BME280;5493;48.884;8.338;2023-02-01T10:43:45;101070.31;;;7.83;100.00
10881;BME280;5493;48.884;8.338;2023-02-01T10:46:14;101049.22;;;7.80;100.00
10881;BME280;5493;48.884;8.338;2023-02-01T10:48:41;101052.59;;;7.74;100.00
10881;BME280;5493;48.884;8.338;2023-02-01T10:51:13;101049.81;;;7.68;100.00
10881;BME280;5493;48.884;8.338;2023-02-01T10:53:44;101064.75;;;7.70;100.00
10881;BME280;5493;48.884;8.338;2023-02-01T10:56:22;101072.94;;;7.91;100.00
10881;BME280;5493;48.884;8.338;2023-02-01T10:58:49;101079.31;;;7.90;100.00
10881;BME280;5493;48.884;8.338;2023-02-01T11:01:18;101070.25;;;7.91;100.00
10881;BME280;5493;48.884;8.338;2023-02-01T11:03:52;101050.75;;;7.75;100.00
10881;BME280;5493;48.884;8.338;2023-02-01T11:06:25;101068.94;;;7.87;100.00
10881;BME280;5493;48.884;8.338;2023-02-01T11:08:54;101047.44;;;7.73;100.00
10881;BME280;5493;48.884;8.338;2023-02-01T11:11:23;101052.75;;;7.81;100.00
10881;BME280;5493;48.884;8.338;2023-02-01T11:13:57;101028.34;;;7.68;100.00
10881;BME280;5493;48.884;8.338;2023-02-01T11:16:34;101022.72;;;7.63;100.00
10881;BME280;5493;48.884;8.338;2023-02-01T11:19:01;101024.78;;;7.90;100.00
10881;BME280;5493;48.884;8.338;2023-02-01T11:21:27;101018.56;;;7.75;100.00
10881;BME280;5493;48.884;8.338;2023-02-01T11:23:54;100986.25;;;7.68;100.00
10881;BME280;5493;48.884;8.338;2023-02-01T11:26:24;101017.00;;;7.80;100.00
10881;BME280;5493;48.884;8.338;2023-02-01T11:28:54;101012.72;;;7.71;100.00
10881;BME280;5493;48.884;8.338;2023-02-01T11:31:23;101002.06;;;7.78;100.00
10881;BME280;5493;48.884;8.338;2023-02-01T11:33:52;100992.28;;;7.70;100.00
10881;BME280;5493;48.884;8.338;2023-02-01T11:36:22;100990.97;;;7.66;100.00
10881;BME280;5493;48.884;8.338;2023-02-01T11:38:54;101004.31;;;7.89;100.00
10881;BME280;5493;48.884;8.338;2023-02-01T11:41:34;100999.75;;;7.75;100.00
10881;BME280;5493;48.884;8.338;2023-02-01T11:44:18;100984.78;;;7.66;100.00
10881;BME280;5493;48.884;8.338;2023-02-01T11:46:45;100987.56;;;7.72;100.00
10881;BME280;5493;48.884;8.338;2023-02-01T11:49:20;100996.63;;;7.71;100.00
10881;BME280;5493;48.884;8.338;2023-02-01T11:52:03;100993.66;;;7.66;100.00
10881;BME280;5493;48.884;8.338;2023-02-01T11:54:46;100987.97;;;7.47;100.00
10881;BME280;5493;48.884;8.338;2023-02-01T11:57:30;100975.59;;;7.60;100.00
10881;BME280;5493;48.884;8.338;2023-02-01T12:00:18;100979.88;;;7.69;100.00
10881;BME280;5493;48.884;8.338;2023-02-01T12:03:01;100981.84;;;7.38;100.00
10881;BME280;5493;48.884;8.338;2023-02-01T12:05:44;100998.56;;;7.63;100.00
10881;BME280;5493;48.884;8.338;2023-02-01T12:08:26;100994.28;;;7.54;100.00
10881;BME280;5493;48.884;8.338;2023-02-01T12:11:10;100992.34;;;7.48;100.00
10881;BME280;5493;48.884;8.338;2023-02-01T12:13:59;100980.59;;;7.49;100.00
10881;BME280;5493;48.884;8.338;2023-02-01T12:16:32;101000.47;;;7.17;100.00
10881;BME280;5493;48.884;8.338;2023-02-01T12:19:14;100988.31;;;7.29;100.00
10881;BME280;5493;48.884;8.338;2023-02-01T12:21:53;100987.84;;;7.25;100.00
10881;BME280;5493;48.884;8.338;2023-02-01T12:27:45;100995.72;;;7.27;100.00
10881;BME280;5493;48.884;8.338;2023-02-01T12:30:32;100991.09;;;7.35;100.00
10881;BME280;5493;48.884;8.338;2023-02-01T12:33:07;100988.81;;;7.47;100.00
10881;BME280;5493;48.884;8.338;2023-02-01T12:35:44;100968.09;;;7.41;100.00
10881;BME280;5493;48.884;8.338;2023-02-01T12:38:26;100984.19;;;7.41;100.00
10881;BME280;5493;48.884;8.338;2023-02-01T12:41:11;100968.69;;;7.28;100.00
10881;BME280;5493;48.884;8.338;2023-02-01T12:43:48;100973.16;;;7.36;100.00
10881;BME280;5493;48.884;8.338;2023-02-01T12:46:22;100971.59;;;7.56;100.00
10881;BME280;5493;48.884;8.338;2023-02-01T12:48:55;100954.84;;;7.39;100.00
10881;BME280;5493;48.884;8.338;2023-02-01T12:51:27;100977.41;;;7.30;100.00
10881;BME280;5493;48.884;8.338;2023-02-01T12:53:59;100973.56;;;7.62;100.00
10881;BME280;5493;48.884;8.338;2023-02-01T12:56:31;100982.34;;;7.71;100.00
10881;BME280;5493;48.884;8.338;2023-02-01T12:59:02;100979.34;;;7.36;100.00
10881;BME280;5493;48.884;8.338;2023-02-01T13:01:34;100980.78;;;7.62;100.00
10881;BME280;5493;48.884;8.338;2023-02-01T13:04:06;100973.28;;;7.57;100.00
10881;BME280;5493;48.884;8.338;2023-02-01T13:06:39;100987.50;;;7.43;100.00
10881;BME280;5493;48.884;8.338;2023-02-01T13:09:21;100999.28;;;7.57;100.00
10881;BME280;5493;48.884;8.338;2023-02-01T13:11:52;100997.69;;;7.48;100.00
10881;BME280;5493;48.884;8.338;2023-02-01T13:14:25;100986.81;;;7.26;100.00
10881;BME280;5493;48.884;8.338;2023-02-01T13:16:59;100970.94;;;7.39;100.00
10881;BME280;5493;48.884;8.338;2023-02-01T13:19:29;100973.00;;;7.15;100.00
10881;BME280;5493;48.884;8.338;2023-02-01T13:21:58;100967.97;;;7.34;100.00
10881;BME280;5493;48.884;8.338;2023-02-01T13:24:32;100959.09;;;7.34;100.00
10881;BME280;5493;48.884;8.338;2023-02-01T13:27:00;100950.59;;;7.30;100.00
10881;BME280;5493;48.884;8.338;2023-02-01T13:29:28;100940.19;;;7.27;100.00
10881;BME280;5493;48.884;8.338;2023-02-01T13:32:07;100943.97;;;7.18;100.00